createdAt,value
2022-12-26T00:02:24.450Z,99151.94
2022-12-26T00:04:53.645Z,99148.28
2022-12-26T00:07:21.459Z,99150.75
2022-12-26T00:09:48.601Z,99141.97
2022-12-26T00:12:15.797Z,99144.47
2022-12-26T00:14:42.714Z,99151.34
2022-12-26T00:17:09.962Z,99144.31
2022-12-26T00:19:36.972Z,99140.75
2022-12-26T00:22:04.169Z,99140.66
2022-12-26T00:24:31.043Z,99148.41
2022-12-26T00:26:58.292Z,99123.91
2022-12-26T00:29:25.208Z,99123.75
2022-12-26T00:31:52.513Z,99131.53
2022-12-26T00:34:19.482Z,99131.38
2022-12-26T00:36:46.731Z,99124.34
2022-12-26T00:39:13.829Z,99136.38
2022-12-26T00:41:41.270Z,99139.59
2022-12-26T00:44:08.163Z,99117.72
2022-12-26T00:46:35.465Z,99131.53
2022-12-26T00:49:02.591Z,99129.72
2022-12-26T00:51:29.884Z,99117.53
2022-12-26T00:53:56.842Z,99123.63
2022-12-26T00:56:24.135Z,99110.59
2022-12-26T00:58:51.129Z,99108.84
2022-12-26T01:01:23.844Z,99100.06
2022-12-26T01:03:51.451Z,99089.56
2022-12-26T01:06:18.915Z,99104.31
2022-12-26T01:08:45.957Z,99093.00
2022-12-26T01:11:15.433Z,99090.38
2022-12-26T01:13:44.016Z,99090.41
2022-12-26T01:16:11.365Z,99086.94
2022-12-26T01:18:38.394Z,99100.88
2022-12-26T01:21:11.709Z,99082.53
2022-12-26T01:23:38.594Z,99089.47
2022-12-26T01:26:15.845Z,99084.22
2022-12-26T01:28:47.135Z,99092.06
2022-12-26T01:31:14.461Z,99080.75
2022-12-26T01:33:41.665Z,99070.19
2022-12-26T01:36:09.185Z,99061.28
2022-12-26T01:38:36.430Z,99059.50
2022-12-26T01:41:21.678Z,99068.16
2022-12-26T01:43:59.329Z,99062.09
2022-12-26T01:46:42.741Z,99042.06
2022-12-26T01:49:29.877Z,99035.09
2022-12-26T01:52:02.837Z,99049.03
2022-12-26T01:54:39.010Z,99056.03
2022-12-26T01:57:24.632Z,99067.44
2022-12-26T01:59:52.757Z,99067.47
2022-12-26T02:02:22.035Z,99056.13
2022-12-26T02:05:09.701Z,99061.25
2022-12-26T02:07:40.620Z,99055.91
2022-12-26T02:10:13.948Z,99047.09
2022-12-26T02:12:41.702Z,99039.84
2022-12-26T02:15:13.581Z,99039.84
2022-12-26T02:17:41.944Z,99038.06
2022-12-26T02:20:26.147Z,99032.00
2022-12-26T02:23:13.592Z,99027.69
2022-12-26T02:25:55.182Z,99018.97
2022-12-26T02:28:44.250Z,99019.88
2022-12-26T02:31:20.351Z,99024.13
2022-12-26T02:34:12.388Z,99016.13
2022-12-26T02:36:58.290Z,98994.91
2022-12-26T02:39:59.798Z,98997.44
2022-12-26T02:42:44.948Z,98995.53
2022-12-26T02:46:01.770Z,99008.56
2022-12-26T02:48:59.181Z,99007.59
2022-12-26T02:51:50.817Z,98992.72
2022-12-26T02:54:55.674Z,99003.19
2022-12-26T02:57:58.581Z,99004.88
2022-12-26T03:00:45.339Z,98994.41
2022-12-26T03:03:38.414Z,98977.03
2022-12-26T03:06:37.982Z,98980.47
2022-12-26T03:09:28.710Z,98984.00
2022-12-26T03:12:20.299Z,98979.78
2022-12-26T03:15:01.336Z,98956.19
2022-12-26T03:17:43.638Z,98935.28
2022-12-26T03:20:33.294Z,98939.50
2022-12-26T03:23:06.411Z,98949.91
2022-12-26T03:26:07.577Z,98951.69
2022-12-26T03:28:34.859Z,98963.81
2022-12-26T03:31:06.150Z,98962.09
2022-12-26T03:33:54.542Z,98969.00
2022-12-26T03:36:21.649Z,98968.09
2022-12-26T03:38:55.407Z,98961.69
2022-12-26T03:41:52.644Z,98942.25
2022-12-26T03:44:54.013Z,98950.78
2022-12-26T03:47:59.823Z,98952.31
2022-12-26T03:50:55.636Z,98943.38
2022-12-26T03:53:55.966Z,98927.22
2022-12-26T03:56:54.396Z,98911.22
2022-12-26T03:59:49.524Z,98930.47
2022-12-26T04:02:37.691Z,98914.78
2022-12-26T04:05:25.730Z,98916.50
2022-12-26T04:08:18.897Z,98912.97
2022-12-26T04:11:12.312Z,98907.38
2022-12-26T04:14:14.350Z,98895.19
2022-12-26T04:17:15.634Z,98890.75
2022-12-26T04:19:52.450Z,98902.13
2022-12-26T04:23:11.252Z,98867.03
2022-12-26T04:26:25.838Z,98850.38
2022-12-26T04:29:12.452Z,98857.22
2022-12-26T04:32:16.628Z,98868.69
2022-12-26T04:35:13.764Z,98854.59
2022-12-26T04:38:03.843Z,98867.38
2022-12-26T04:40:55.076Z,98851.66
2022-12-26T04:43:48.265Z,98842.09
2022-12-26T04:46:21.074Z,98861.28
2022-12-26T04:49:08.634Z,98871.75
2022-12-26T04:51:36.470Z,98857.81
2022-12-26T04:54:04.600Z,98866.41
2022-12-26T04:56:31.874Z,98857.69
2022-12-26T04:58:59.755Z,98872.56
2022-12-26T05:01:46.084Z,98860.25
2022-12-26T05:04:35.981Z,98859.38
2022-12-26T05:07:24.130Z,98865.50
2022-12-26T05:09:54.002Z,98864.63
2022-12-26T05:12:21.744Z,98866.53
2022-12-26T05:14:48.674Z,98858.56
2022-12-26T05:17:34.485Z,98863.38
2022-12-26T05:20:19.886Z,98848.53
2022-12-26T05:23:06.119Z,98842.53
2022-12-26T05:25:56.563Z,98838.22
2022-12-26T05:28:42.251Z,98832.94
2022-12-26T05:31:15.298Z,98834.50
2022-12-26T05:34:01.526Z,98833.69
2022-12-26T05:36:33.516Z,98824.19
2022-12-26T05:39:01.990Z,98801.44
2022-12-26T05:41:29.072Z,98809.50
2022-12-26T05:43:56.278Z,98790.31
2022-12-26T05:46:23.228Z,98788.66
2022-12-26T05:48:50.715Z,98793.09
2022-12-26T05:51:17.726Z,98792.28
2022-12-26T05:53:44.981Z,98807.03
2022-12-26T05:56:14.784Z,98793.16
2022-12-26T05:58:42.511Z,98796.38
2022-12-26T06:01:13.513Z,98790.28
2022-12-26T06:03:43.541Z,98812.16
2022-12-26T06:06:10.874Z,98784.25
2022-12-26T06:08:38.412Z,98767.63
2022-12-26T06:11:11.368Z,98778.94
2022-12-26T06:13:39.415Z,98771.06
2022-12-26T06:16:08.115Z,98806.06
2022-12-26T06:18:35.560Z,98802.69
2022-12-26T06:21:15.378Z,98799.28
2022-12-26T06:23:43.341Z,98813.97
2022-12-26T06:26:12.716Z,98802.38
2022-12-26T06:28:42.351Z,98807.22
2022-12-26T06:31:14.727Z,98796.03
2022-12-26T06:33:42.782Z,98794.84
2022-12-26T06:36:15.505Z,98793.19
2022-12-26T06:38:43.547Z,98799.13
2022-12-26T06:41:16.192Z,98793.31
2022-12-26T06:43:43.958Z,98786.38
2022-12-26T06:46:15.253Z,98791.72
2022-12-26T06:48:42.813Z,98809.13
2022-12-26T06:51:19.933Z,98792.41
2022-12-26T06:53:48.949Z,98796.59
2022-12-26T06:56:21.428Z,98792.03
2022-12-26T06:58:53.891Z,98798.16
2022-12-26T07:01:22.462Z,98799.69
2022-12-26T07:03:52.178Z,98801.34
2022-12-26T07:06:25.214Z,98808.09
2022-12-26T07:08:59.130Z,98800.69
2022-12-26T07:11:37.829Z,98805.84
2022-12-26T07:14:05.957Z,98791.78
2022-12-26T07:16:36.851Z,98783.66
2022-12-26T07:19:04.554Z,98803.91
2022-12-26T07:21:37.939Z,98802.25
2022-12-26T07:24:09.081Z,98829.88
2022-12-26T07:26:36.238Z,98786.78
2022-12-26T07:29:03.554Z,98785.91
2022-12-26T07:31:30.772Z,98779.59
2022-12-26T07:33:58.081Z,98789.91
2022-12-26T07:36:25.471Z,98778.59
2022-12-26T07:38:52.840Z,98790.03
2022-12-26T07:41:39.157Z,98785.06
2022-12-26T07:44:06.677Z,98787.50
2022-12-26T07:46:34.294Z,98777.69
2022-12-26T07:49:01.837Z,98791.69
2022-12-26T07:51:29.076Z,98809.84
2022-12-26T07:53:56.353Z,98790.47
2022-12-26T07:56:23.894Z,98811.94
2022-12-26T07:58:52.196Z,98794.78
2022-12-26T08:01:19.479Z,98793.34
2022-12-26T08:03:49.042Z,98782.38
2022-12-26T08:06:16.480Z,98774.00
2022-12-26T08:08:50.242Z,98800.25
2022-12-26T08:11:21.319Z,98796.75
2022-12-26T08:13:48.779Z,98771.38
2022-12-26T08:16:16.090Z,98788.69
2022-12-26T08:18:43.844Z,98779.03
2022-12-26T08:21:12.310Z,98783.44
2022-12-26T08:23:40.029Z,98792.34
2022-12-26T08:26:09.340Z,98795.00
2022-12-26T08:28:37.356Z,98805.38
2022-12-26T08:31:08.314Z,98806.38
2022-12-26T08:33:36.308Z,98804.34
2022-12-26T08:36:04.813Z,98811.41
2022-12-26T08:38:33.982Z,98816.53
2022-12-26T08:41:01.693Z,98812.47
2022-12-26T08:43:48.930Z,98820.69
2022-12-26T08:46:17.235Z,98811.94
2022-12-26T08:48:45.926Z,98803.03
2022-12-26T08:51:22.040Z,98790.91
2022-12-26T08:53:49.962Z,98776.28
2022-12-26T08:56:19.825Z,98788.75
2022-12-26T08:58:48.239Z,98784.47
2022-12-26T09:01:16.787Z,98762.22
2022-12-26T09:03:44.695Z,98757.88
2022-12-26T09:06:14.236Z,98757.63
2022-12-26T09:08:42.345Z,98756.09
2022-12-26T09:11:12.468Z,98770.47
2022-12-26T09:13:40.917Z,98762.41
2022-12-26T09:16:11.818Z,98765.06
2022-12-26T09:18:44.754Z,98752.72
2022-12-26T09:21:13.918Z,98759.41
2022-12-26T09:23:44.277Z,98746.56
2022-12-26T09:26:17.252Z,98723.59
2022-12-26T09:28:47.145Z,98743.88
2022-12-26T09:31:17.605Z,98747.56
2022-12-26T09:33:45.264Z,98762.16
2022-12-26T09:36:15.401Z,98752.56
2022-12-26T09:38:44.029Z,98749.81
2022-12-26T09:41:48.567Z,98731.69
2022-12-26T09:44:33.829Z,98747.47
2022-12-26T09:47:07.469Z,98744.34
2022-12-26T09:50:09.760Z,98752.69
2022-12-26T09:52:50.009Z,98748.50
2022-12-26T09:55:32.575Z,98738.38
2022-12-26T09:58:05.596Z,98737.88
2022-12-26T10:00:43.622Z,98735.63
2022-12-26T10:03:12.068Z,98742.81
2022-12-26T10:05:52.723Z,98729.00
2022-12-26T10:08:30.012Z,98715.19
2022-12-26T10:11:03.186Z,98698.38
2022-12-26T10:13:54.137Z,98710.84
2022-12-26T10:16:31.945Z,98719.97
2022-12-26T10:19:32.454Z,98707.16
2022-12-26T10:22:24.876Z,98722.06
2022-12-26T10:24:52.415Z,98726.22
2022-12-26T10:27:21.526Z,98718.31
2022-12-26T10:30:21.681Z,98715.97
2022-12-26T10:32:56.322Z,98721.16
2022-12-26T10:35:31.556Z,98701.88
2022-12-26T10:38:06.562Z,98699.81
2022-12-26T10:40:41.241Z,98691.00
2022-12-26T10:43:22.877Z,98695.19
2022-12-26T10:45:58.651Z,98687.44
2022-12-26T10:48:28.946Z,98683.09
2022-12-26T10:50:56.785Z,98690.88
2022-12-26T10:53:24.588Z,98712.06
2022-12-26T10:55:51.642Z,98689.75
2022-12-26T10:58:28.908Z,98683.16
2022-12-26T11:00:56.109Z,98682.88
2022-12-26T11:03:23.809Z,98682.19
2022-12-26T11:06:07.416Z,98674.41
2022-12-26T11:08:47.320Z,98688.63
2022-12-26T11:11:29.075Z,98701.78
2022-12-26T11:14:04.493Z,98697.75
2022-12-26T11:16:38.771Z,98692.41
2022-12-26T11:19:26.063Z,98699.13
2022-12-26T11:21:53.403Z,98701.38
2022-12-26T11:24:21.283Z,98705.84
2022-12-26T11:26:49.063Z,98690.34
2022-12-26T11:29:18.318Z,98700.66
2022-12-26T11:31:58.700Z,98697.38
2022-12-26T11:34:46.309Z,98709.16
2022-12-26T11:37:28.828Z,98703.47
2022-12-26T11:39:57.329Z,98699.16
2022-12-26T11:42:27.195Z,98692.13
2022-12-26T11:44:57.407Z,98688.34
2022-12-26T11:47:28.319Z,98692.56
2022-12-26T11:50:06.461Z,98683.44
2022-12-26T11:52:42.505Z,98674.53
2022-12-26T11:55:34.432Z,98684.16
2022-12-26T11:58:10.646Z,98666.97
2022-12-26T12:00:50.977Z,98661.06
2022-12-26T12:03:31.757Z,98666.97
2022-12-26T12:06:40.731Z,98670.25
2022-12-26T12:09:20.030Z,98667.00
2022-12-26T12:12:18.467Z,98668.56
2022-12-26T12:15:03.508Z,98659.88
2022-12-26T12:17:45.790Z,98666.50
2022-12-26T12:20:27.225Z,98640.03
2022-12-26T12:23:33.641Z,98636.81
2022-12-26T12:26:14.527Z,98636.19
2022-12-26T12:29:22.569Z,98628.34
2022-12-26T12:32:10.627Z,98623.19
2022-12-26T12:35:25.808Z,98627.72
2022-12-26T12:38:17.419Z,98621.53
2022-12-26T12:41:12.740Z,98626.09
2022-12-26T12:43:55.814Z,98628.78
2022-12-26T12:46:51.056Z,98625.44
2022-12-26T12:49:30.342Z,98618.31
2022-12-26T12:52:15.934Z,98633.25
2022-12-26T12:54:54.732Z,98633.16
2022-12-26T12:57:58.817Z,98633.16
2022-12-26T13:00:30.708Z,98623.19
2022-12-26T13:03:13.579Z,98630.94
2022-12-26T13:05:48.985Z,98631.78
2022-12-26T13:08:25.539Z,98630.72
2022-12-26T13:10:59.406Z,98646.28
2022-12-26T13:13:42.470Z,98650.50
2022-12-26T13:16:16.850Z,98630.50
2022-12-26T13:18:54.049Z,98638.19
2022-12-26T13:21:22.797Z,98637.63
2022-12-26T13:24:18.325Z,98628.88
2022-12-26T13:26:54.473Z,98627.34
2022-12-26T13:29:42.642Z,98634.19
2022-12-26T13:32:26.519Z,98639.53
2022-12-26T13:34:56.701Z,98626.66
2022-12-26T13:37:32.827Z,98645.22
2022-12-26T13:40:01.840Z,98640.69
2022-12-26T13:42:54.678Z,98641.75
2022-12-26T13:45:43.773Z,98640.03
2022-12-26T13:48:17.162Z,98641.09
2022-12-26T13:50:55.154Z,98652.28
2022-12-26T13:53:25.623Z,98642.88
2022-12-26T13:56:00.730Z,98646.50
2022-12-26T13:59:05.309Z,98641.44
2022-12-26T14:01:41.297Z,98654.53
2022-12-26T14:04:29.830Z,98665.06
2022-12-26T14:07:55.262Z,98641.66
2022-12-26T14:10:26.364Z,98657.72
2022-12-26T14:13:36.704Z,98643.88
2022-12-26T14:16:11.432Z,98647.66
2022-12-26T14:19:31.617Z,98646.34
2022-12-26T14:22:04.521Z,98654.56
2022-12-26T14:24:47.107Z,98646.09
2022-12-26T14:27:41.003Z,98650.56
2022-12-26T14:30:20.710Z,98640.31
2022-12-26T14:33:09.167Z,98653.66
2022-12-26T14:36:29.256Z,98672.47
2022-12-26T14:39:05.596Z,98664.03
2022-12-26T14:43:00.651Z,98667.03
2022-12-26T14:47:40.573Z,98657.56
2022-12-26T14:49:35.010Z,98663.03
2022-12-26T14:52:25.477Z,98684.97
2022-12-26T14:54:53.721Z,98679.78
2022-12-26T14:57:44.218Z,98676.50
2022-12-26T15:00:15.247Z,98690.78
2022-12-26T15:02:46.554Z,98663.00
2022-12-26T15:05:27.889Z,98663.00
2022-12-26T15:08:09.967Z,98681.38
2022-12-26T15:10:40.142Z,98679.50
2022-12-26T15:13:44.513Z,98675.94
2022-12-26T15:16:32.815Z,98664.72
2022-12-26T15:19:40.914Z,98667.59
2022-12-26T15:22:14.287Z,98668.66
2022-12-26T15:25:18.210Z,98664.47
2022-12-26T15:27:40.384Z,98666.19
2022-12-26T15:30:19.240Z,98661.66
2022-12-26T15:33:07.799Z,98642.28
2022-12-26T15:36:14.326Z,98668.63
2022-12-26T15:38:53.351Z,98662.38
2022-12-26T15:41:46.128Z,98661.47
2022-12-26T15:48:51.630Z,98670.22
2022-12-26T15:51:52.339Z,98682.41
2022-12-26T15:54:41.141Z,98687.56
2022-12-26T15:57:43.378Z,98702.53
2022-12-26T16:00:16.434Z,98697.47
2022-12-26T16:03:17.538Z,98694.66
2022-12-26T16:06:12.246Z,98671.06
2022-12-26T16:09:06.268Z,98684.19
2022-12-26T16:11:45.518Z,98679.78
2022-12-26T16:14:29.836Z,98664.97
2022-12-26T16:17:15.274Z,98667.63
2022-12-26T16:19:47.475Z,98673.81
2022-12-26T16:22:42.514Z,98680.66
2022-12-26T16:25:21.661Z,98664.91
2022-12-26T16:27:54.967Z,98669.38
2022-12-26T16:30:30.740Z,98662.56
2022-12-26T16:33:00.351Z,98657.44
2022-12-26T16:35:34.685Z,98662.69
2022-12-26T16:38:04.397Z,98656.66
2022-12-26T16:40:48.767Z,98653.22
2022-12-26T16:43:18.690Z,98642.53
2022-12-26T16:45:54.585Z,98653.00
2022-12-26T16:48:24.327Z,98649.66
2022-12-26T16:50:58.151Z,98649.56
2022-12-26T16:53:41.412Z,98650.28
2022-12-26T16:56:40.678Z,98653.84
2022-12-26T16:59:17.834Z,98654.63
2022-12-26T17:01:57.240Z,98659.09
2022-12-26T17:04:26.980Z,98652.19
2022-12-26T17:06:59.286Z,98639.63
2022-12-26T17:09:29.115Z,98650.13
2022-12-26T17:12:09.329Z,98632.50
2022-12-26T17:14:41.026Z,98630.75
2022-12-26T17:17:31.503Z,98616.75
2022-12-26T17:20:20.063Z,98646.38
2022-12-26T17:22:47.207Z,98639.53
2022-12-26T17:25:30.415Z,98651.78
2022-12-26T17:28:09.941Z,98649.31
2022-12-26T17:30:39.573Z,98641.56
2022-12-26T17:33:22.778Z,98646.75
2022-12-26T17:38:45.836Z,98634.78
2022-12-26T17:41:16.688Z,98639.34
2022-12-26T17:43:45.657Z,98626.31
2022-12-26T17:46:17.386Z,98628.25
2022-12-26T17:48:44.791Z,98636.06
2022-12-26T17:51:17.737Z,98646.19
2022-12-26T17:53:50.439Z,98640.16
2022-12-26T17:56:21.282Z,98638.09
2022-12-26T17:58:49.376Z,98648.41
2022-12-26T18:01:40.067Z,98643.09
2022-12-26T18:04:07.159Z,98627.16
2022-12-26T18:06:34.611Z,98634.94
2022-12-26T18:09:01.584Z,98617.28
2022-12-26T18:11:28.952Z,98624.19
2022-12-26T18:13:55.915Z,98608.41
2022-12-26T18:16:28.180Z,98606.59
2022-12-26T18:18:55.208Z,98611.72
2022-12-26T18:21:22.544Z,98600.09
2022-12-26T18:23:49.530Z,98599.91
2022-12-26T18:26:21.179Z,98604.56
2022-12-26T18:28:50.435Z,98605.34
2022-12-26T18:31:17.936Z,98598.31
2022-12-26T18:33:45.163Z,98583.34
2022-12-26T18:36:13.553Z,98588.47
2022-12-26T18:38:40.722Z,98582.56
2022-12-26T18:41:14.559Z,98593.25
2022-12-26T18:43:41.465Z,98590.97
2022-12-26T18:46:24.152Z,98611.91
2022-12-26T18:48:54.032Z,98599.09
2022-12-26T18:51:25.159Z,98582.78
2022-12-26T18:53:52.656Z,98595.81
2022-12-26T18:56:22.106Z,98574.00
2022-12-26T18:58:57.107Z,98577.00
2022-12-26T19:01:25.203Z,98574.78
2022-12-26T19:03:53.946Z,98569.56
2022-12-26T19:06:27.957Z,98592.59
2022-12-26T19:08:55.253Z,98584.59
2022-12-26T19:11:23.585Z,98606.72
2022-12-26T19:13:50.945Z,98601.50
2022-12-26T19:16:18.368Z,98601.50
2022-12-26T19:18:45.334Z,98618.28
2022-12-26T19:21:13.955Z,98642.94
2022-12-26T19:23:42.144Z,98627.31
2022-12-26T19:26:11.600Z,98627.75
2022-12-26T19:28:39.284Z,98626.22
2022-12-26T19:31:11.970Z,98633.16
2022-12-26T19:33:39.029Z,98637.13
2022-12-26T19:36:10.903Z,98637.34
2022-12-26T19:38:38.037Z,98629.59
2022-12-26T19:41:10.253Z,98636.72
2022-12-26T19:43:37.633Z,98634.22
2022-12-26T19:46:07.938Z,98628.94
2022-12-26T19:48:36.366Z,98633.38
2022-12-26T19:51:07.001Z,98638.72
2022-12-26T19:53:34.841Z,98627.38
2022-12-26T19:56:10.739Z,98629.25
2022-12-26T19:58:38.342Z,98632.78
2022-12-26T20:01:12.753Z,98633.53
2022-12-26T20:03:40.033Z,98634.56
2022-12-26T20:06:20.962Z,98633.59
2022-12-26T20:08:49.732Z,98625.78
2022-12-26T20:11:20.384Z,98616.25
2022-12-26T20:13:48.372Z,98586.56
2022-12-26T20:16:46.066Z,98582.13
2022-12-26T20:19:05.349Z,98575.84
2022-12-26T20:21:32.713Z,98585.63
2022-12-26T20:24:00.901Z,98577.66
2022-12-26T20:26:29.140Z,98590.03
2022-12-26T20:28:58.552Z,98589.34
2022-12-26T20:31:25.804Z,98582.47
2022-12-26T20:33:52.824Z,98577.25
2022-12-26T20:36:26.025Z,98577.31
2022-12-26T20:38:54.708Z,98617.34
2022-12-26T20:41:22.411Z,98632.53
2022-12-26T20:43:50.326Z,98646.47
2022-12-26T20:46:25.493Z,98643.75
2022-12-26T20:48:53.525Z,98649.75
2022-12-26T20:51:23.801Z,98652.28
2022-12-26T20:53:51.873Z,98655.75
2022-12-26T20:56:20.136Z,98654.84
2022-12-26T20:58:47.962Z,98653.03
2022-12-26T21:01:18.851Z,98645.22
2022-12-26T21:03:46.293Z,98653.94
2022-12-26T21:06:18.175Z,98649.38
2022-12-26T21:08:46.947Z,98654.41
2022-12-26T21:11:23.674Z,98654.44
2022-12-26T21:13:52.153Z,98663.91
2022-12-26T21:16:23.299Z,98656.00
2022-12-26T21:18:50.349Z,98654.91
2022-12-26T21:21:24.345Z,98656.63
2022-12-26T21:23:59.619Z,98644.94
2022-12-26T21:26:28.120Z,98633.47
2022-12-26T21:28:57.345Z,98628.94
2022-12-26T21:31:24.841Z,98622.84
2022-12-26T21:33:54.999Z,98613.19
2022-12-26T21:36:22.854Z,98625.28
2022-12-26T21:38:50.063Z,98626.41
2022-12-26T21:41:25.207Z,98622.97
2022-12-26T21:43:54.573Z,98628.41
2022-12-26T21:46:21.972Z,98638.16
2022-12-26T21:48:50.285Z,98633.91
2022-12-26T21:51:19.213Z,98625.03
2022-12-26T21:53:47.612Z,98627.78
2022-12-26T21:56:17.307Z,98634.06
2022-12-26T21:59:03.535Z,98627.78
2022-12-26T22:01:31.356Z,98623.50
2022-12-26T22:04:16.976Z,98626.19
2022-12-26T22:06:44.179Z,98640.16
2022-12-26T22:09:12.355Z,98637.53
2022-12-26T22:11:58.237Z,98654.28
2022-12-26T22:14:25.087Z,98658.56
2022-12-26T22:16:55.561Z,98661.19
2022-12-26T22:19:27.061Z,98659.19
2022-12-26T22:21:55.132Z,98647.75
2022-12-26T22:24:22.533Z,98666.09
2022-12-26T22:26:50.044Z,98671.19
2022-12-26T22:29:17.138Z,98647.50
2022-12-26T22:31:44.749Z,98649.94
2022-12-26T22:34:13.779Z,98645.75
2022-12-26T22:36:41.292Z,98652.06
2022-12-26T22:39:09.959Z,98654.63
2022-12-26T22:41:38.179Z,98648.69
2022-12-26T22:44:05.318Z,98642.41
2022-12-26T22:46:32.584Z,98646.78
2022-12-26T22:48:59.622Z,98642.31
2022-12-26T22:51:27.374Z,98644.78
2022-12-26T22:53:56.899Z,98656.13
2022-12-26T22:56:24.236Z,98656.91
2022-12-26T22:58:55.790Z,98654.97
2022-12-26T23:01:23.420Z,98651.31
2022-12-26T23:03:50.555Z,98647.66
2022-12-26T23:06:29.299Z,98644.09
2022-12-26T23:08:58.464Z,98628.19
2022-12-26T23:11:34.302Z,98637.88
2022-12-26T23:14:03.546Z,98642.09
2022-12-26T23:16:40.033Z,98632.56
2022-12-26T23:19:46.232Z,98641.31
2022-12-26T23:22:13.763Z,98643.88
2022-12-26T23:24:40.741Z,98634.22
2022-12-26T23:27:28.838Z,98628.97
2022-12-26T23:30:15.013Z,98633.38
2022-12-26T23:32:43.523Z,98630.88
2022-12-26T23:35:12.306Z,98619.50
2022-12-26T23:37:41.111Z,98628.34
2022-12-26T23:40:10.780Z,98618.84
2022-12-26T23:42:38.190Z,98631.81
2022-12-26T23:45:06.002Z,98620.44
2022-12-26T23:47:37.034Z,98619.59
2022-12-26T23:50:06.171Z,98619.50
2022-12-26T23:52:33.814Z,98628.19
2022-12-26T23:55:00.874Z,98622.88
2022-12-26T23:57:28.165Z,98629.94
2022-12-26T23:59:55.220Z,98638.75
